<?xml version="1.0" encoding="UTF-8" standalone="no" ?>
<gpx xmlns="http://www.topografix.com/GPX/1/1" xmlns:xsi="http://www.w3.org/2001/XMLSchema-instance" xsi:schemaLocation="http://www.topografix.com/GPX/1/1 http://www.topografix.com/GPX/1/1/gpx.xsd" version="1.1" creator="VisuGPX - https://www.visugpx.com">
  <metadata>
    <name>Best 24/10</name>
  </metadata>
  <trk>
    <name><![CDATA[Best VTT 23/01-18235080]]></name>
    <trkseg>
      <trkpt lat="47.27121" lon="-2.23276">
        <ele>8</ele>
        <time>2024-01-24T06:59:10Z</time>
      </trkpt>
      <trkpt lat="47.27013" lon="-2.23301">
        <ele>10</ele>
        <time>2024-01-24T06:59:36Z</time>
      </trkpt>
      <trkpt lat="47.27016" lon="-2.23347">
        <ele>11</ele>
        <time>2024-01-24T06:59:43Z</time>
      </trkpt>
      <trkpt lat="47.26943" lon="-2.23363">
        <ele>11</ele>
        <time>2024-01-24T07:00:00Z</time>
      </trkpt>
      <trkpt lat="47.26942" lon="-2.23369">
        <ele>12</ele>
        <time>2024-01-24T07:00:01Z</time>
      </trkpt>
      <trkpt lat="47.26976" lon="-2.23665">
        <ele>18</ele>
        <time>2024-01-24T07:00:49Z</time>
      </trkpt>
      <trkpt lat="47.26981" lon="-2.23703">
        <ele>19</ele>
        <time>2024-01-24T07:00:55Z</time>
      </trkpt>
      <trkpt lat="47.26983" lon="-2.23707">
        <ele>19</ele>
        <time>2024-01-24T07:00:56Z</time>
      </trkpt>
      <trkpt lat="47.26988" lon="-2.23707">
        <ele>19</ele>
        <time>2024-01-24T07:00:57Z</time>
      </trkpt>
      <trkpt lat="47.26991" lon="-2.23712">
        <ele>19</ele>
        <time>2024-01-24T07:00:58Z</time>
      </trkpt>
      <trkpt lat="47.27011" lon="-2.23695">
        <ele>18</ele>
        <time>2024-01-24T07:01:03Z</time>
      </trkpt>
      <trkpt lat="47.27144" lon="-2.2362">
        <ele>15</ele>
        <time>2024-01-24T07:01:36Z</time>
      </trkpt>
      <trkpt lat="47.27203" lon="-2.2358">
        <ele>13</ele>
        <time>2024-01-24T07:01:52Z</time>
      </trkpt>
      <trkpt lat="47.27255" lon="-2.23709">
        <ele>14</ele>
        <time>2024-01-24T07:02:15Z</time>
      </trkpt>
      <trkpt lat="47.27259" lon="-2.2373">
        <ele>14</ele>
        <time>2024-01-24T07:02:19Z</time>
      </trkpt>
      <trkpt lat="47.27287" lon="-2.23977">
        <ele>14</ele>
        <time>2024-01-24T07:02:59Z</time>
      </trkpt>
      <trkpt lat="47.2729" lon="-2.23983">
        <ele>14</ele>
        <time>2024-01-24T07:03:00Z</time>
      </trkpt>
      <trkpt lat="47.27295" lon="-2.23984">
        <ele>14</ele>
        <time>2024-01-24T07:03:01Z</time>
      </trkpt>
      <trkpt lat="47.27309" lon="-2.23981">
        <ele>14</ele>
        <time>2024-01-24T07:03:04Z</time>
      </trkpt>
      <trkpt lat="47.27317" lon="-2.23979">
        <ele>14</ele>
        <time>2024-01-24T07:03:06Z</time>
      </trkpt>
      <trkpt lat="47.27318" lon="-2.23979">
        <ele>14</ele>
        <time>2024-01-24T07:03:06Z</time>
      </trkpt>
      <trkpt lat="47.27368" lon="-2.24035">
        <ele>17</ele>
        <time>2024-01-24T07:03:21Z</time>
      </trkpt>
      <trkpt lat="47.2737" lon="-2.24055">
        <ele>17</ele>
        <time>2024-01-24T07:03:24Z</time>
      </trkpt>
      <trkpt lat="47.27383" lon="-2.2407">
        <ele>18</ele>
        <time>2024-01-24T07:03:28Z</time>
      </trkpt>
      <trkpt lat="47.27394" lon="-2.24088">
        <ele>19</ele>
        <time>2024-01-24T07:03:32Z</time>
      </trkpt>
      <trkpt lat="47.27404" lon="-2.24106">
        <ele>19</ele>
        <time>2024-01-24T07:03:36Z</time>
      </trkpt>
      <trkpt lat="47.27401" lon="-2.24158">
        <ele>18</ele>
        <time>2024-01-24T07:03:44Z</time>
      </trkpt>
      <trkpt lat="47.27415" lon="-2.24185">
        <ele>18</ele>
        <time>2024-01-24T07:03:49Z</time>
      </trkpt>
      <trkpt lat="47.27426" lon="-2.24215">
        <ele>17</ele>
        <time>2024-01-24T07:03:55Z</time>
      </trkpt>
      <trkpt lat="47.27427" lon="-2.24233">
        <ele>17</ele>
        <time>2024-01-24T07:03:57Z</time>
      </trkpt>
      <trkpt lat="47.27437" lon="-2.24248">
        <ele>17</ele>
        <time>2024-01-24T07:04:01Z</time>
      </trkpt>
      <trkpt lat="47.27446" lon="-2.24269">
        <ele>16</ele>
        <time>2024-01-24T07:04:05Z</time>
      </trkpt>
      <trkpt lat="47.27458" lon="-2.24288">
        <ele>17</ele>
        <time>2024-01-24T07:04:09Z</time>
      </trkpt>
      <trkpt lat="47.27445" lon="-2.24323">
        <ele>16</ele>
        <time>2024-01-24T07:04:15Z</time>
      </trkpt>
      <trkpt lat="47.27438" lon="-2.24367">
        <ele>15</ele>
        <time>2024-01-24T07:04:22Z</time>
      </trkpt>
      <trkpt lat="47.27439" lon="-2.24393">
        <ele>15</ele>
        <time>2024-01-24T07:04:26Z</time>
      </trkpt>
      <trkpt lat="47.27439" lon="-2.24408">
        <ele>15</ele>
        <time>2024-01-24T07:04:29Z</time>
      </trkpt>
      <trkpt lat="47.27439" lon="-2.24424">
        <ele>15</ele>
        <time>2024-01-24T07:04:31Z</time>
      </trkpt>
      <trkpt lat="47.2744" lon="-2.24482">
        <ele>16</ele>
        <time>2024-01-24T07:04:41Z</time>
      </trkpt>
      <trkpt lat="47.27435" lon="-2.24565">
        <ele>17</ele>
        <time>2024-01-24T07:04:54Z</time>
      </trkpt>
      <trkpt lat="47.27429" lon="-2.24625">
        <ele>16</ele>
        <time>2024-01-24T07:05:03Z</time>
      </trkpt>
      <trkpt lat="47.2743" lon="-2.24632">
        <ele>16</ele>
        <time>2024-01-24T07:05:05Z</time>
      </trkpt>
      <trkpt lat="47.27437" lon="-2.2467">
        <ele>15</ele>
        <time>2024-01-24T07:05:11Z</time>
      </trkpt>
      <trkpt lat="47.27438" lon="-2.24776">
        <ele>17</ele>
        <time>2024-01-24T07:05:28Z</time>
      </trkpt>
      <trkpt lat="47.27429" lon="-2.2482">
        <ele>16</ele>
        <time>2024-01-24T07:05:35Z</time>
      </trkpt>
      <trkpt lat="47.27425" lon="-2.24833">
        <ele>16</ele>
        <time>2024-01-24T07:05:37Z</time>
      </trkpt>
      <trkpt lat="47.2741" lon="-2.24872">
        <ele>16</ele>
        <time>2024-01-24T07:05:44Z</time>
      </trkpt>
      <trkpt lat="47.27405" lon="-2.24886">
        <ele>16</ele>
        <time>2024-01-24T07:05:47Z</time>
      </trkpt>
      <trkpt lat="47.27409" lon="-2.2489">
        <ele>16</ele>
        <time>2024-01-24T07:05:48Z</time>
      </trkpt>
      <trkpt lat="47.27418" lon="-2.24912">
        <ele>16</ele>
        <time>2024-01-24T07:05:52Z</time>
      </trkpt>
      <trkpt lat="47.27426" lon="-2.2495">
        <ele>14</ele>
        <time>2024-01-24T07:05:58Z</time>
      </trkpt>
      <trkpt lat="47.27437" lon="-2.2495">
        <ele>14</ele>
        <time>2024-01-24T07:06:01Z</time>
      </trkpt>
      <trkpt lat="47.27485" lon="-2.24983">
        <ele>13</ele>
        <time>2024-01-24T07:06:13Z</time>
      </trkpt>
      <trkpt lat="47.27521" lon="-2.2502">
        <ele>12</ele>
        <time>2024-01-24T07:06:23Z</time>
      </trkpt>
      <trkpt lat="47.27555" lon="-2.25067">
        <ele>10</ele>
        <time>2024-01-24T07:06:34Z</time>
      </trkpt>
      <trkpt lat="47.27573" lon="-2.25078">
        <ele>10</ele>
        <time>2024-01-24T07:06:39Z</time>
      </trkpt>
      <trkpt lat="47.27615" lon="-2.25096">
        <ele>10</ele>
        <time>2024-01-24T07:06:49Z</time>
      </trkpt>
      <trkpt lat="47.27632" lon="-2.25107">
        <ele>10</ele>
        <time>2024-01-24T07:06:53Z</time>
      </trkpt>
      <trkpt lat="47.27645" lon="-2.25109">
        <ele>10</ele>
        <time>2024-01-24T07:06:56Z</time>
      </trkpt>
      <trkpt lat="47.2777" lon="-2.25029">
        <ele>12</ele>
        <time>2024-01-24T07:07:28Z</time>
      </trkpt>
      <trkpt lat="47.27779" lon="-2.25025">
        <ele>12</ele>
        <time>2024-01-24T07:07:30Z</time>
      </trkpt>
      <trkpt lat="47.27807" lon="-2.25025">
        <ele>12</ele>
        <time>2024-01-24T07:07:37Z</time>
      </trkpt>
      <trkpt lat="47.27833" lon="-2.25046">
        <ele>11</ele>
        <time>2024-01-24T07:07:44Z</time>
      </trkpt>
      <trkpt lat="47.27871" lon="-2.25062">
        <ele>11</ele>
        <time>2024-01-24T07:07:53Z</time>
      </trkpt>
      <trkpt lat="47.27897" lon="-2.25088">
        <ele>10</ele>
        <time>2024-01-24T07:08:00Z</time>
      </trkpt>
      <trkpt lat="47.27932" lon="-2.25076">
        <ele>12</ele>
        <time>2024-01-24T07:08:09Z</time>
      </trkpt>
      <trkpt lat="47.27954" lon="-2.25071">
        <ele>12</ele>
        <time>2024-01-24T07:08:14Z</time>
      </trkpt>
      <trkpt lat="47.2797" lon="-2.25069">
        <ele>12</ele>
        <time>2024-01-24T07:08:18Z</time>
      </trkpt>
      <trkpt lat="47.27984" lon="-2.25071">
        <ele>12</ele>
        <time>2024-01-24T07:08:21Z</time>
      </trkpt>
      <trkpt lat="47.27996" lon="-2.25078">
        <ele>12</ele>
        <time>2024-01-24T07:08:24Z</time>
      </trkpt>
      <trkpt lat="47.28081" lon="-2.25148">
        <ele>10</ele>
        <time>2024-01-24T07:08:47Z</time>
      </trkpt>
      <trkpt lat="47.28095" lon="-2.25166">
        <ele>11</ele>
        <time>2024-01-24T07:08:51Z</time>
      </trkpt>
      <trkpt lat="47.28097" lon="-2.25189">
        <ele>12</ele>
        <time>2024-01-24T07:08:55Z</time>
      </trkpt>
      <trkpt lat="47.28094" lon="-2.25216">
        <ele>13</ele>
        <time>2024-01-24T07:08:59Z</time>
      </trkpt>
      <trkpt lat="47.28079" lon="-2.25271">
        <ele>14</ele>
        <time>2024-01-24T07:09:09Z</time>
      </trkpt>
      <trkpt lat="47.28077" lon="-2.25299">
        <ele>14</ele>
        <time>2024-01-24T07:09:13Z</time>
      </trkpt>
      <trkpt lat="47.28077" lon="-2.25338">
        <ele>14</ele>
        <time>2024-01-24T07:09:19Z</time>
      </trkpt>
      <trkpt lat="47.2808" lon="-2.25424">
        <ele>14</ele>
        <time>2024-01-24T07:09:33Z</time>
      </trkpt>
      <trkpt lat="47.28094" lon="-2.25496">
        <ele>15</ele>
        <time>2024-01-24T07:09:45Z</time>
      </trkpt>
      <trkpt lat="47.28096" lon="-2.25528">
        <ele>16</ele>
        <time>2024-01-24T07:09:50Z</time>
      </trkpt>
      <trkpt lat="47.28098" lon="-2.25697">
        <ele>15</ele>
        <time>2024-01-24T07:10:17Z</time>
      </trkpt>
      <trkpt lat="47.28097" lon="-2.25766">
        <ele>14</ele>
        <time>2024-01-24T07:10:28Z</time>
      </trkpt>
      <trkpt lat="47.28095" lon="-2.25782">
        <ele>14</ele>
        <time>2024-01-24T07:10:30Z</time>
      </trkpt>
      <trkpt lat="47.28092" lon="-2.25791">
        <ele>14</ele>
        <time>2024-01-24T07:10:32Z</time>
      </trkpt>
      <trkpt lat="47.2808" lon="-2.25808">
        <ele>14</ele>
        <time>2024-01-24T07:10:36Z</time>
      </trkpt>
      <trkpt lat="47.28023" lon="-2.25876">
        <ele>13</ele>
        <time>2024-01-24T07:10:53Z</time>
      </trkpt>
      <trkpt lat="47.27996" lon="-2.25921">
        <ele>13</ele>
        <time>2024-01-24T07:11:02Z</time>
      </trkpt>
      <trkpt lat="47.27978" lon="-2.25964">
        <ele>12</ele>
        <time>2024-01-24T07:11:10Z</time>
      </trkpt>
      <trkpt lat="47.27971" lon="-2.25991">
        <ele>12</ele>
        <time>2024-01-24T07:11:15Z</time>
      </trkpt>
      <trkpt lat="47.27955" lon="-2.2607">
        <ele>12</ele>
        <time>2024-01-24T07:11:28Z</time>
      </trkpt>
      <trkpt lat="47.27944" lon="-2.26178">
        <ele>15</ele>
        <time>2024-01-24T07:11:45Z</time>
      </trkpt>
      <trkpt lat="47.27936" lon="-2.26214">
        <ele>15</ele>
        <time>2024-01-24T07:11:51Z</time>
      </trkpt>
      <trkpt lat="47.27931" lon="-2.26225">
        <ele>15</ele>
        <time>2024-01-24T07:11:53Z</time>
      </trkpt>
      <trkpt lat="47.27927" lon="-2.26236">
        <ele>15</ele>
        <time>2024-01-24T07:11:55Z</time>
      </trkpt>
      <trkpt lat="47.2794" lon="-2.26233">
        <ele>15</ele>
        <time>2024-01-24T07:11:58Z</time>
      </trkpt>
      <trkpt lat="47.27954" lon="-2.26233">
        <ele>15</ele>
        <time>2024-01-24T07:12:02Z</time>
      </trkpt>
      <trkpt lat="47.27962" lon="-2.26184">
        <ele>15</ele>
        <time>2024-01-24T07:12:10Z</time>
      </trkpt>
      <trkpt lat="47.28015" lon="-2.26216">
        <ele>16</ele>
        <time>2024-01-24T07:12:23Z</time>
      </trkpt>
      <trkpt lat="47.28061" lon="-2.26248">
        <ele>17</ele>
        <time>2024-01-24T07:12:35Z</time>
      </trkpt>
      <trkpt lat="47.28073" lon="-2.26267">
        <ele>18</ele>
        <time>2024-01-24T07:12:39Z</time>
      </trkpt>
      <trkpt lat="47.2809" lon="-2.26275">
        <ele>19</ele>
        <time>2024-01-24T07:12:43Z</time>
      </trkpt>
      <trkpt lat="47.28103" lon="-2.26302">
        <ele>20</ele>
        <time>2024-01-24T07:12:48Z</time>
      </trkpt>
      <trkpt lat="47.28118" lon="-2.26324">
        <ele>21</ele>
        <time>2024-01-24T07:12:53Z</time>
      </trkpt>
      <trkpt lat="47.28123" lon="-2.26329">
        <ele>21</ele>
        <time>2024-01-24T07:12:55Z</time>
      </trkpt>
      <trkpt lat="47.2813" lon="-2.26354">
        <ele>22</ele>
        <time>2024-01-24T07:12:59Z</time>
      </trkpt>
      <trkpt lat="47.28143" lon="-2.26374">
        <ele>22</ele>
        <time>2024-01-24T07:13:03Z</time>
      </trkpt>
      <trkpt lat="47.28154" lon="-2.26417">
        <ele>23</ele>
        <time>2024-01-24T07:13:11Z</time>
      </trkpt>
      <trkpt lat="47.2817" lon="-2.26429">
        <ele>23</ele>
        <time>2024-01-24T07:13:15Z</time>
      </trkpt>
      <trkpt lat="47.28189" lon="-2.26461">
        <ele>24</ele>
        <time>2024-01-24T07:13:22Z</time>
      </trkpt>
      <trkpt lat="47.28228" lon="-2.26515">
        <ele>25</ele>
        <time>2024-01-24T07:13:34Z</time>
      </trkpt>
      <trkpt lat="47.28232" lon="-2.26529">
        <ele>25</ele>
        <time>2024-01-24T07:13:37Z</time>
      </trkpt>
      <trkpt lat="47.28238" lon="-2.26534">
        <ele>25</ele>
        <time>2024-01-24T07:13:38Z</time>
      </trkpt>
      <trkpt lat="47.28244" lon="-2.26534">
        <ele>25</ele>
        <time>2024-01-24T07:13:40Z</time>
      </trkpt>
      <trkpt lat="47.28271" lon="-2.26573">
        <ele>26</ele>
        <time>2024-01-24T07:13:48Z</time>
      </trkpt>
      <trkpt lat="47.28277" lon="-2.26584">
        <ele>26</ele>
        <time>2024-01-24T07:13:51Z</time>
      </trkpt>
      <trkpt lat="47.28282" lon="-2.26624">
        <ele>26</ele>
        <time>2024-01-24T07:13:57Z</time>
      </trkpt>
      <trkpt lat="47.28287" lon="-2.2664">
        <ele>27</ele>
        <time>2024-01-24T07:14:00Z</time>
      </trkpt>
      <trkpt lat="47.2831" lon="-2.26674">
        <ele>28</ele>
        <time>2024-01-24T07:14:07Z</time>
      </trkpt>
      <trkpt lat="47.28317" lon="-2.26678">
        <ele>28</ele>
        <time>2024-01-24T07:14:09Z</time>
      </trkpt>
      <trkpt lat="47.28324" lon="-2.26694">
        <ele>28</ele>
        <time>2024-01-24T07:14:12Z</time>
      </trkpt>
      <trkpt lat="47.28337" lon="-2.26749">
        <ele>28</ele>
        <time>2024-01-24T07:14:21Z</time>
      </trkpt>
      <trkpt lat="47.28352" lon="-2.26796">
        <ele>28</ele>
        <time>2024-01-24T07:14:30Z</time>
      </trkpt>
      <trkpt lat="47.2837" lon="-2.26866">
        <ele>28</ele>
        <time>2024-01-24T07:14:42Z</time>
      </trkpt>
      <trkpt lat="47.2831" lon="-2.26987">
        <ele>32</ele>
        <time>2024-01-24T07:15:05Z</time>
      </trkpt>
      <trkpt lat="47.28288" lon="-2.27022">
        <ele>34</ele>
        <time>2024-01-24T07:15:13Z</time>
      </trkpt>
      <trkpt lat="47.28244" lon="-2.27089">
        <ele>37</ele>
        <time>2024-01-24T07:15:28Z</time>
      </trkpt>
      <trkpt lat="47.28221" lon="-2.27121">
        <ele>37</ele>
        <time>2024-01-24T07:15:35Z</time>
      </trkpt>
      <trkpt lat="47.282" lon="-2.27157">
        <ele>37</ele>
        <time>2024-01-24T07:15:42Z</time>
      </trkpt>
      <trkpt lat="47.28173" lon="-2.27232">
        <ele>38</ele>
        <time>2024-01-24T07:15:56Z</time>
      </trkpt>
      <trkpt lat="47.2813" lon="-2.27366">
        <ele>37</ele>
        <time>2024-01-24T07:16:19Z</time>
      </trkpt>
      <trkpt lat="47.28133" lon="-2.27368">
        <ele>37</ele>
        <time>2024-01-24T07:16:20Z</time>
      </trkpt>
      <trkpt lat="47.28153" lon="-2.27372">
        <ele>37</ele>
        <time>2024-01-24T07:16:25Z</time>
      </trkpt>
      <trkpt lat="47.28242" lon="-2.2735">
        <ele>37</ele>
        <time>2024-01-24T07:16:46Z</time>
      </trkpt>
      <trkpt lat="47.28264" lon="-2.27349">
        <ele>36</ele>
        <time>2024-01-24T07:16:51Z</time>
      </trkpt>
      <trkpt lat="47.28297" lon="-2.2735">
        <ele>34</ele>
        <time>2024-01-24T07:16:59Z</time>
      </trkpt>
      <trkpt lat="47.28335" lon="-2.27348">
        <ele>32</ele>
        <time>2024-01-24T07:17:08Z</time>
      </trkpt>
      <trkpt lat="47.28371" lon="-2.27352">
        <ele>29</ele>
        <time>2024-01-24T07:17:16Z</time>
      </trkpt>
      <trkpt lat="47.28381" lon="-2.27353">
        <ele>28</ele>
        <time>2024-01-24T07:17:18Z</time>
      </trkpt>
      <trkpt lat="47.28349" lon="-2.27576">
        <ele>30</ele>
        <time>2024-01-24T07:17:55Z</time>
      </trkpt>
      <trkpt lat="47.28329" lon="-2.278">
        <ele>28</ele>
        <time>2024-01-24T07:18:30Z</time>
      </trkpt>
      <trkpt lat="47.28324" lon="-2.28098">
        <ele>25</ele>
        <time>2024-01-24T07:19:18Z</time>
      </trkpt>
      <trkpt lat="47.28325" lon="-2.28244">
        <ele>26</ele>
        <time>2024-01-24T07:19:41Z</time>
      </trkpt>
      <trkpt lat="47.28323" lon="-2.28288">
        <ele>27</ele>
        <time>2024-01-24T07:19:48Z</time>
      </trkpt>
      <trkpt lat="47.2832" lon="-2.28307">
        <ele>27</ele>
        <time>2024-01-24T07:19:51Z</time>
      </trkpt>
      <trkpt lat="47.28324" lon="-2.28332">
        <ele>28</ele>
        <time>2024-01-24T07:19:55Z</time>
      </trkpt>
      <trkpt lat="47.28323" lon="-2.2836">
        <ele>28</ele>
        <time>2024-01-24T07:19:59Z</time>
      </trkpt>
      <trkpt lat="47.28318" lon="-2.28396">
        <ele>29</ele>
        <time>2024-01-24T07:20:05Z</time>
      </trkpt>
      <trkpt lat="47.28299" lon="-2.2846">
        <ele>29</ele>
        <time>2024-01-24T07:20:16Z</time>
      </trkpt>
      <trkpt lat="47.28285" lon="-2.2856">
        <ele>27</ele>
        <time>2024-01-24T07:20:32Z</time>
      </trkpt>
      <trkpt lat="47.28249" lon="-2.28727">
        <ele>28</ele>
        <time>2024-01-24T07:21:00Z</time>
      </trkpt>
      <trkpt lat="47.28223" lon="-2.28878">
        <ele>28</ele>
        <time>2024-01-24T07:21:25Z</time>
      </trkpt>
      <trkpt lat="47.28199" lon="-2.28868">
        <ele>28</ele>
        <time>2024-01-24T07:21:31Z</time>
      </trkpt>
      <trkpt lat="47.28151" lon="-2.28822">
        <ele>28</ele>
        <time>2024-01-24T07:21:44Z</time>
      </trkpt>
      <trkpt lat="47.28124" lon="-2.28802">
        <ele>28</ele>
        <time>2024-01-24T07:21:51Z</time>
      </trkpt>
      <trkpt lat="47.28105" lon="-2.28789">
        <ele>27</ele>
        <time>2024-01-24T07:21:56Z</time>
      </trkpt>
      <trkpt lat="47.28045" lon="-2.2876">
        <ele>25</ele>
        <time>2024-01-24T07:22:11Z</time>
      </trkpt>
      <trkpt lat="47.27981" lon="-2.28746">
        <ele>22</ele>
        <time>2024-01-24T07:22:26Z</time>
      </trkpt>
      <trkpt lat="47.27964" lon="-2.28746">
        <ele>22</ele>
        <time>2024-01-24T07:22:30Z</time>
      </trkpt>
      <trkpt lat="47.27938" lon="-2.28751">
        <ele>23</ele>
        <time>2024-01-24T07:22:36Z</time>
      </trkpt>
      <trkpt lat="47.27904" lon="-2.28764">
        <ele>23</ele>
        <time>2024-01-24T07:22:44Z</time>
      </trkpt>
      <trkpt lat="47.27875" lon="-2.28772">
        <ele>23</ele>
        <time>2024-01-24T07:22:51Z</time>
      </trkpt>
      <trkpt lat="47.27875" lon="-2.28772">
        <ele>23</ele>
        <time>2024-01-24T07:22:51Z</time>
      </trkpt>
      <trkpt lat="47.27869" lon="-2.28819">
        <ele>23</ele>
        <time>2024-01-24T07:22:59Z</time>
      </trkpt>
      <trkpt lat="47.27796" lon="-2.28791">
        <ele>23</ele>
        <time>2024-01-24T07:23:16Z</time>
      </trkpt>
      <trkpt lat="47.27494" lon="-2.28923">
        <ele>29</ele>
        <time>2024-01-24T07:24:30Z</time>
      </trkpt>
      <trkpt lat="47.27459" lon="-2.28965">
        <ele>27</ele>
        <time>2024-01-24T07:24:40Z</time>
      </trkpt>
      <trkpt lat="47.27432" lon="-2.29042">
        <ele>26</ele>
        <time>2024-01-24T07:24:54Z</time>
      </trkpt>
      <trkpt lat="47.27387" lon="-2.29047">
        <ele>27</ele>
        <time>2024-01-24T07:25:05Z</time>
      </trkpt>
      <trkpt lat="47.27332" lon="-2.29035">
        <ele>29</ele>
        <time>2024-01-24T07:25:18Z</time>
      </trkpt>
      <trkpt lat="47.27342" lon="-2.28953">
        <ele>28</ele>
        <time>2024-01-24T07:25:31Z</time>
      </trkpt>
      <trkpt lat="47.2732" lon="-2.28952">
        <ele>29</ele>
        <time>2024-01-24T07:25:36Z</time>
      </trkpt>
      <trkpt lat="47.27211" lon="-2.29092">
        <ele>28</ele>
        <time>2024-01-24T07:26:10Z</time>
      </trkpt>
      <trkpt lat="47.272" lon="-2.29103">
        <ele>28</ele>
        <time>2024-01-24T07:26:13Z</time>
      </trkpt>
      <trkpt lat="47.27186" lon="-2.29117">
        <ele>28</ele>
        <time>2024-01-24T07:26:17Z</time>
      </trkpt>
      <trkpt lat="47.27187" lon="-2.29126">
        <ele>28</ele>
        <time>2024-01-24T07:26:18Z</time>
      </trkpt>
      <trkpt lat="47.27204" lon="-2.29125">
        <ele>28</ele>
        <time>2024-01-24T07:26:22Z</time>
      </trkpt>
      <trkpt lat="47.27216" lon="-2.29129">
        <ele>28</ele>
        <time>2024-01-24T07:26:25Z</time>
      </trkpt>
      <trkpt lat="47.27295" lon="-2.29179">
        <ele>28</ele>
        <time>2024-01-24T07:26:45Z</time>
      </trkpt>
      <trkpt lat="47.27263" lon="-2.29392">
        <ele>28</ele>
        <time>2024-01-24T07:27:20Z</time>
      </trkpt>
      <trkpt lat="47.27247" lon="-2.29528">
        <ele>32</ele>
        <time>2024-01-24T07:27:42Z</time>
      </trkpt>
      <trkpt lat="47.27248" lon="-2.29551">
        <ele>31</ele>
        <time>2024-01-24T07:27:45Z</time>
      </trkpt>
      <trkpt lat="47.27253" lon="-2.29588">
        <ele>31</ele>
        <time>2024-01-24T07:27:51Z</time>
      </trkpt>
      <trkpt lat="47.27263" lon="-2.29642">
        <ele>31</ele>
        <time>2024-01-24T07:28:00Z</time>
      </trkpt>
      <trkpt lat="47.27273" lon="-2.29704">
        <ele>30</ele>
        <time>2024-01-24T07:28:10Z</time>
      </trkpt>
      <trkpt lat="47.27298" lon="-2.29788">
        <ele>30</ele>
        <time>2024-01-24T07:28:25Z</time>
      </trkpt>
      <trkpt lat="47.2735" lon="-2.29884">
        <ele>30</ele>
        <time>2024-01-24T07:28:44Z</time>
      </trkpt>
      <trkpt lat="47.27407" lon="-2.30006">
        <ele>29</ele>
        <time>2024-01-24T07:29:08Z</time>
      </trkpt>
      <trkpt lat="47.27436" lon="-2.30098">
        <ele>27</ele>
        <time>2024-01-24T07:29:24Z</time>
      </trkpt>
      <trkpt lat="47.27488" lon="-2.30354">
        <ele>21</ele>
        <time>2024-01-24T07:30:06Z</time>
      </trkpt>
      <trkpt lat="47.27504" lon="-2.30434">
        <ele>19</ele>
        <time>2024-01-24T07:30:19Z</time>
      </trkpt>
      <trkpt lat="47.27544" lon="-2.30597">
        <ele>18</ele>
        <time>2024-01-24T07:30:47Z</time>
      </trkpt>
      <trkpt lat="47.27578" lon="-2.30757">
        <ele>18</ele>
        <time>2024-01-24T07:31:13Z</time>
      </trkpt>
      <trkpt lat="47.27702" lon="-2.31036">
        <ele>16</ele>
        <time>2024-01-24T07:32:06Z</time>
      </trkpt>
      <trkpt lat="47.27718" lon="-2.31071">
        <ele>16</ele>
        <time>2024-01-24T07:32:13Z</time>
      </trkpt>
      <trkpt lat="47.27586" lon="-2.31557">
        <ele>10</ele>
        <time>2024-01-24T07:33:36Z</time>
      </trkpt>
      <trkpt lat="47.27578" lon="-2.31576">
        <ele>10</ele>
        <time>2024-01-24T07:33:39Z</time>
      </trkpt>
      <trkpt lat="47.27548" lon="-2.31685">
        <ele>9</ele>
        <time>2024-01-24T07:33:58Z</time>
      </trkpt>
      <trkpt lat="47.27519" lon="-2.31806">
        <ele>8</ele>
        <time>2024-01-24T07:34:18Z</time>
      </trkpt>
      <trkpt lat="47.27494" lon="-2.3188">
        <ele>7</ele>
        <time>2024-01-24T07:34:31Z</time>
      </trkpt>
      <trkpt lat="47.2743" lon="-2.32033">
        <ele>7</ele>
        <time>2024-01-24T07:35:00Z</time>
      </trkpt>
      <trkpt lat="47.27423" lon="-2.32041">
        <ele>6</ele>
        <time>2024-01-24T07:35:02Z</time>
      </trkpt>
      <trkpt lat="47.27415" lon="-2.32042">
        <ele>6</ele>
        <time>2024-01-24T07:35:04Z</time>
      </trkpt>
      <trkpt lat="47.27402" lon="-2.32034">
        <ele>6</ele>
        <time>2024-01-24T07:35:07Z</time>
      </trkpt>
      <trkpt lat="47.2735" lon="-2.3199">
        <ele>6</ele>
        <time>2024-01-24T07:35:21Z</time>
      </trkpt>
      <trkpt lat="47.27338" lon="-2.31988">
        <ele>6</ele>
        <time>2024-01-24T07:35:24Z</time>
      </trkpt>
      <trkpt lat="47.27408" lon="-2.32087">
        <ele>6</ele>
        <time>2024-01-24T07:35:47Z</time>
      </trkpt>
      <trkpt lat="47.27409" lon="-2.32108">
        <ele>6</ele>
        <time>2024-01-24T07:35:50Z</time>
      </trkpt>
      <trkpt lat="47.27394" lon="-2.32207">
        <ele>6</ele>
        <time>2024-01-24T07:36:06Z</time>
      </trkpt>
      <trkpt lat="47.27381" lon="-2.32276">
        <ele>7</ele>
        <time>2024-01-24T07:36:17Z</time>
      </trkpt>
      <trkpt lat="47.27354" lon="-2.32401">
        <ele>8</ele>
        <time>2024-01-24T07:36:38Z</time>
      </trkpt>
      <trkpt lat="47.2733" lon="-2.32466">
        <ele>9</ele>
        <time>2024-01-24T07:36:50Z</time>
      </trkpt>
      <trkpt lat="47.27283" lon="-2.32542">
        <ele>9</ele>
        <time>2024-01-24T07:37:06Z</time>
      </trkpt>
      <trkpt lat="47.27225" lon="-2.32606">
        <ele>8</ele>
        <time>2024-01-24T07:37:23Z</time>
      </trkpt>
      <trkpt lat="47.27132" lon="-2.32695">
        <ele>6</ele>
        <time>2024-01-24T07:37:49Z</time>
      </trkpt>
      <trkpt lat="47.2713" lon="-2.32705">
        <ele>6</ele>
        <time>2024-01-24T07:37:51Z</time>
      </trkpt>
      <trkpt lat="47.27019" lon="-2.3281">
        <ele>5</ele>
        <time>2024-01-24T07:38:21Z</time>
      </trkpt>
      <trkpt lat="47.26812" lon="-2.33001">
        <ele>7</ele>
        <time>2024-01-24T07:39:18Z</time>
      </trkpt>
      <trkpt lat="47.26796" lon="-2.33012">
        <ele>7</ele>
        <time>2024-01-24T07:39:23Z</time>
      </trkpt>
      <trkpt lat="47.26783" lon="-2.33005">
        <ele>6</ele>
        <time>2024-01-24T07:39:26Z</time>
      </trkpt>
      <trkpt lat="47.26758" lon="-2.32954">
        <ele>7</ele>
        <time>2024-01-24T07:39:36Z</time>
      </trkpt>
      <trkpt lat="47.26758" lon="-2.32955">
        <ele>7</ele>
        <time>2024-01-24T07:39:36Z</time>
      </trkpt>
      <trkpt lat="47.26778" lon="-2.32934">
        <ele>7</ele>
        <time>2024-01-24T07:39:42Z</time>
      </trkpt>
      <trkpt lat="47.26863" lon="-2.32868">
        <ele>7</ele>
        <time>2024-01-24T07:40:04Z</time>
      </trkpt>
      <trkpt lat="47.26796" lon="-2.32674">
        <ele>15</ele>
        <time>2024-01-24T07:40:39Z</time>
      </trkpt>
      <trkpt lat="47.26806" lon="-2.3266">
        <ele>15</ele>
        <time>2024-01-24T07:40:42Z</time>
      </trkpt>
      <trkpt lat="47.26792" lon="-2.32493">
        <ele>16</ele>
        <time>2024-01-24T07:41:08Z</time>
      </trkpt>
      <trkpt lat="47.26772" lon="-2.32369">
        <ele>17</ele>
        <time>2024-01-24T07:41:29Z</time>
      </trkpt>
      <trkpt lat="47.26908" lon="-2.32335">
        <ele>10</ele>
        <time>2024-01-24T07:42:01Z</time>
      </trkpt>
      <trkpt lat="47.26923" lon="-2.32326">
        <ele>9</ele>
        <time>2024-01-24T07:42:05Z</time>
      </trkpt>
      <trkpt lat="47.26998" lon="-2.32511">
        <ele>5</ele>
        <time>2024-01-24T07:42:39Z</time>
      </trkpt>
      <trkpt lat="47.2702" lon="-2.32501">
        <ele>4</ele>
        <time>2024-01-24T07:42:44Z</time>
      </trkpt>
      <trkpt lat="47.27031" lon="-2.32492">
        <ele>4</ele>
        <time>2024-01-24T07:42:47Z</time>
      </trkpt>
      <trkpt lat="47.27031" lon="-2.3248">
        <ele>4</ele>
        <time>2024-01-24T07:42:49Z</time>
      </trkpt>
      <trkpt lat="47.2703" lon="-2.32433">
        <ele>3</ele>
        <time>2024-01-24T07:42:56Z</time>
      </trkpt>
      <trkpt lat="47.27018" lon="-2.32245">
        <ele>3</ele>
        <time>2024-01-24T07:43:26Z</time>
      </trkpt>
      <trkpt lat="47.27012" lon="-2.32196">
        <ele>4</ele>
        <time>2024-01-24T07:43:34Z</time>
      </trkpt>
      <trkpt lat="47.2699" lon="-2.32164">
        <ele>5</ele>
        <time>2024-01-24T07:43:41Z</time>
      </trkpt>
      <trkpt lat="47.26983" lon="-2.3215">
        <ele>5</ele>
        <time>2024-01-24T07:43:44Z</time>
      </trkpt>
      <trkpt lat="47.26986" lon="-2.32137">
        <ele>6</ele>
        <time>2024-01-24T07:43:46Z</time>
      </trkpt>
      <trkpt lat="47.27005" lon="-2.32116">
        <ele>6</ele>
        <time>2024-01-24T07:43:52Z</time>
      </trkpt>
      <trkpt lat="47.27013" lon="-2.32061">
        <ele>7</ele>
        <time>2024-01-24T07:44:01Z</time>
      </trkpt>
      <trkpt lat="47.27001" lon="-2.31985">
        <ele>11</ele>
        <time>2024-01-24T07:44:13Z</time>
      </trkpt>
      <trkpt lat="47.27037" lon="-2.31952">
        <ele>10</ele>
        <time>2024-01-24T07:44:23Z</time>
      </trkpt>
      <trkpt lat="47.27094" lon="-2.31957">
        <ele>8</ele>
        <time>2024-01-24T07:44:36Z</time>
      </trkpt>
      <trkpt lat="47.27098" lon="-2.31899">
        <ele>9</ele>
        <time>2024-01-24T07:44:46Z</time>
      </trkpt>
      <trkpt lat="47.27098" lon="-2.3187">
        <ele>10</ele>
        <time>2024-01-24T07:44:50Z</time>
      </trkpt>
      <trkpt lat="47.27091" lon="-2.3186">
        <ele>10</ele>
        <time>2024-01-24T07:44:53Z</time>
      </trkpt>
      <trkpt lat="47.27082" lon="-2.31862">
        <ele>10</ele>
        <time>2024-01-24T07:44:55Z</time>
      </trkpt>
      <trkpt lat="47.27062" lon="-2.31848">
        <ele>12</ele>
        <time>2024-01-24T07:45:00Z</time>
      </trkpt>
      <trkpt lat="47.27057" lon="-2.31829">
        <ele>13</ele>
        <time>2024-01-24T07:45:03Z</time>
      </trkpt>
      <trkpt lat="47.27052" lon="-2.31771">
        <ele>15</ele>
        <time>2024-01-24T07:45:12Z</time>
      </trkpt>
      <trkpt lat="47.27052" lon="-2.31735">
        <ele>17</ele>
        <time>2024-01-24T07:45:18Z</time>
      </trkpt>
      <trkpt lat="47.26998" lon="-2.31693">
        <ele>17</ele>
        <time>2024-01-24T07:45:32Z</time>
      </trkpt>
      <trkpt lat="47.27021" lon="-2.31602">
        <ele>20</ele>
        <time>2024-01-24T07:45:48Z</time>
      </trkpt>
      <trkpt lat="47.27019" lon="-2.31579">
        <ele>21</ele>
        <time>2024-01-24T07:45:51Z</time>
      </trkpt>
      <trkpt lat="47.27005" lon="-2.31553">
        <ele>22</ele>
        <time>2024-01-24T07:45:57Z</time>
      </trkpt>
      <trkpt lat="47.26999" lon="-2.31534">
        <ele>22</ele>
        <time>2024-01-24T07:46:00Z</time>
      </trkpt>
      <trkpt lat="47.2699" lon="-2.31487">
        <ele>24</ele>
        <time>2024-01-24T07:46:08Z</time>
      </trkpt>
      <trkpt lat="47.26971" lon="-2.31295">
        <ele>27</ele>
        <time>2024-01-24T07:46:38Z</time>
      </trkpt>
      <trkpt lat="47.26972" lon="-2.31248">
        <ele>26</ele>
        <time>2024-01-24T07:46:46Z</time>
      </trkpt>
      <trkpt lat="47.26988" lon="-2.31131">
        <ele>26</ele>
        <time>2024-01-24T07:47:05Z</time>
      </trkpt>
      <trkpt lat="47.26988" lon="-2.3112">
        <ele>26</ele>
        <time>2024-01-24T07:47:07Z</time>
      </trkpt>
      <trkpt lat="47.26988" lon="-2.31103">
        <ele>25</ele>
        <time>2024-01-24T07:47:09Z</time>
      </trkpt>
      <trkpt lat="47.26984" lon="-2.31077">
        <ele>25</ele>
        <time>2024-01-24T07:47:14Z</time>
      </trkpt>
      <trkpt lat="47.26973" lon="-2.3105">
        <ele>26</ele>
        <time>2024-01-24T07:47:18Z</time>
      </trkpt>
      <trkpt lat="47.26954" lon="-2.30984">
        <ele>27</ele>
        <time>2024-01-24T07:47:30Z</time>
      </trkpt>
      <trkpt lat="47.26994" lon="-2.30937">
        <ele>26</ele>
        <time>2024-01-24T07:47:42Z</time>
      </trkpt>
      <trkpt lat="47.27047" lon="-2.30901">
        <ele>24</ele>
        <time>2024-01-24T07:47:55Z</time>
      </trkpt>
      <trkpt lat="47.26892" lon="-2.30661">
        <ele>28</ele>
        <time>2024-01-24T07:48:48Z</time>
      </trkpt>
      <trkpt lat="47.26891" lon="-2.30662">
        <ele>28</ele>
        <time>2024-01-24T07:48:48Z</time>
      </trkpt>
      <trkpt lat="47.26874" lon="-2.30684">
        <ele>28</ele>
        <time>2024-01-24T07:48:53Z</time>
      </trkpt>
      <trkpt lat="47.26826" lon="-2.3079">
        <ele>27</ele>
        <time>2024-01-24T07:49:14Z</time>
      </trkpt>
      <trkpt lat="47.26729" lon="-2.30869">
        <ele>28</ele>
        <time>2024-01-24T07:49:40Z</time>
      </trkpt>
      <trkpt lat="47.26653" lon="-2.30691">
        <ele>28</ele>
        <time>2024-01-24T07:50:13Z</time>
      </trkpt>
      <trkpt lat="47.26514" lon="-2.30883">
        <ele>25</ele>
        <time>2024-01-24T07:50:57Z</time>
      </trkpt>
      <trkpt lat="47.26506" lon="-2.3088">
        <ele>25</ele>
        <time>2024-01-24T07:50:59Z</time>
      </trkpt>
      <trkpt lat="47.26496" lon="-2.30866">
        <ele>24</ele>
        <time>2024-01-24T07:51:03Z</time>
      </trkpt>
      <trkpt lat="47.26471" lon="-2.30825">
        <ele>24</ele>
        <time>2024-01-24T07:51:11Z</time>
      </trkpt>
      <trkpt lat="47.2644" lon="-2.30734">
        <ele>26</ele>
        <time>2024-01-24T07:51:27Z</time>
      </trkpt>
      <trkpt lat="47.26429" lon="-2.30707">
        <ele>26</ele>
        <time>2024-01-24T07:51:32Z</time>
      </trkpt>
      <trkpt lat="47.26426" lon="-2.30701">
        <ele>26</ele>
        <time>2024-01-24T07:51:34Z</time>
      </trkpt>
      <trkpt lat="47.26382" lon="-2.30669">
        <ele>25</ele>
        <time>2024-01-24T07:51:45Z</time>
      </trkpt>
      <trkpt lat="47.2636" lon="-2.30623">
        <ele>26</ele>
        <time>2024-01-24T07:51:54Z</time>
      </trkpt>
      <trkpt lat="47.26352" lon="-2.30606">
        <ele>26</ele>
        <time>2024-01-24T07:51:57Z</time>
      </trkpt>
      <trkpt lat="47.26341" lon="-2.30589">
        <ele>26</ele>
        <time>2024-01-24T07:52:01Z</time>
      </trkpt>
      <trkpt lat="47.26331" lon="-2.30505">
        <ele>27</ele>
        <time>2024-01-24T07:52:14Z</time>
      </trkpt>
      <trkpt lat="47.26304" lon="-2.30367">
        <ele>28</ele>
        <time>2024-01-24T07:52:37Z</time>
      </trkpt>
      <trkpt lat="47.263" lon="-2.30335">
        <ele>28</ele>
        <time>2024-01-24T07:52:42Z</time>
      </trkpt>
      <trkpt lat="47.26287" lon="-2.30304">
        <ele>28</ele>
        <time>2024-01-24T07:52:48Z</time>
      </trkpt>
      <trkpt lat="47.26283" lon="-2.30286">
        <ele>28</ele>
        <time>2024-01-24T07:52:51Z</time>
      </trkpt>
      <trkpt lat="47.26264" lon="-2.30182">
        <ele>30</ele>
        <time>2024-01-24T07:53:08Z</time>
      </trkpt>
      <trkpt lat="47.26245" lon="-2.30128">
        <ele>31</ele>
        <time>2024-01-24T07:53:18Z</time>
      </trkpt>
      <trkpt lat="47.26239" lon="-2.30094">
        <ele>31</ele>
        <time>2024-01-24T07:53:23Z</time>
      </trkpt>
      <trkpt lat="47.26226" lon="-2.30063">
        <ele>32</ele>
        <time>2024-01-24T07:53:29Z</time>
      </trkpt>
      <trkpt lat="47.26223" lon="-2.30043">
        <ele>32</ele>
        <time>2024-01-24T07:53:32Z</time>
      </trkpt>
      <trkpt lat="47.26223" lon="-2.30012">
        <ele>32</ele>
        <time>2024-01-24T07:53:37Z</time>
      </trkpt>
      <trkpt lat="47.26226" lon="-2.29976">
        <ele>32</ele>
        <time>2024-01-24T07:53:43Z</time>
      </trkpt>
      <trkpt lat="47.26223" lon="-2.29944">
        <ele>32</ele>
        <time>2024-01-24T07:53:48Z</time>
      </trkpt>
      <trkpt lat="47.2622" lon="-2.29909">
        <ele>32</ele>
        <time>2024-01-24T07:53:54Z</time>
      </trkpt>
      <trkpt lat="47.26221" lon="-2.29885">
        <ele>32</ele>
        <time>2024-01-24T07:53:58Z</time>
      </trkpt>
      <trkpt lat="47.26217" lon="-2.2984">
        <ele>32</ele>
        <time>2024-01-24T07:54:05Z</time>
      </trkpt>
      <trkpt lat="47.26216" lon="-2.2984">
        <ele>32</ele>
        <time>2024-01-24T07:54:05Z</time>
      </trkpt>
      <trkpt lat="47.26289" lon="-2.29822">
        <ele>35</ele>
        <time>2024-01-24T07:54:22Z</time>
      </trkpt>
      <trkpt lat="47.2634" lon="-2.29797">
        <ele>37</ele>
        <time>2024-01-24T07:54:35Z</time>
      </trkpt>
      <trkpt lat="47.26342" lon="-2.29793">
        <ele>37</ele>
        <time>2024-01-24T07:54:36Z</time>
      </trkpt>
      <trkpt lat="47.26329" lon="-2.2972">
        <ele>37</ele>
        <time>2024-01-24T07:54:48Z</time>
      </trkpt>
      <trkpt lat="47.2632" lon="-2.29693">
        <ele>37</ele>
        <time>2024-01-24T07:54:52Z</time>
      </trkpt>
      <trkpt lat="47.26312" lon="-2.29686">
        <ele>37</ele>
        <time>2024-01-24T07:54:55Z</time>
      </trkpt>
      <trkpt lat="47.26319" lon="-2.29657">
        <ele>38</ele>
        <time>2024-01-24T07:54:59Z</time>
      </trkpt>
      <trkpt lat="47.26366" lon="-2.29574">
        <ele>40</ele>
        <time>2024-01-24T07:55:17Z</time>
      </trkpt>
      <trkpt lat="47.26412" lon="-2.29517">
        <ele>39</ele>
        <time>2024-01-24T07:55:31Z</time>
      </trkpt>
      <trkpt lat="47.26413" lon="-2.29488">
        <ele>39</ele>
        <time>2024-01-24T07:55:35Z</time>
      </trkpt>
      <trkpt lat="47.26377" lon="-2.29425">
        <ele>39</ele>
        <time>2024-01-24T07:55:48Z</time>
      </trkpt>
      <trkpt lat="47.26374" lon="-2.29394">
        <ele>39</ele>
        <time>2024-01-24T07:55:53Z</time>
      </trkpt>
      <trkpt lat="47.26408" lon="-2.29306">
        <ele>40</ele>
        <time>2024-01-24T07:56:09Z</time>
      </trkpt>
      <trkpt lat="47.26462" lon="-2.29336">
        <ele>40</ele>
        <time>2024-01-24T07:56:23Z</time>
      </trkpt>
      <trkpt lat="47.26496" lon="-2.2934">
        <ele>40</ele>
        <time>2024-01-24T07:56:31Z</time>
      </trkpt>
      <trkpt lat="47.26529" lon="-2.29327">
        <ele>40</ele>
        <time>2024-01-24T07:56:39Z</time>
      </trkpt>
      <trkpt lat="47.26635" lon="-2.29265">
        <ele>38</ele>
        <time>2024-01-24T07:57:05Z</time>
      </trkpt>
      <trkpt lat="47.26866" lon="-2.29035">
        <ele>31</ele>
        <time>2024-01-24T07:58:10Z</time>
      </trkpt>
      <trkpt lat="47.26898" lon="-2.29008">
        <ele>31</ele>
        <time>2024-01-24T07:58:19Z</time>
      </trkpt>
      <trkpt lat="47.26933" lon="-2.28992">
        <ele>31</ele>
        <time>2024-01-24T07:58:28Z</time>
      </trkpt>
      <trkpt lat="47.26919" lon="-2.28985">
        <ele>31</ele>
        <time>2024-01-24T07:58:31Z</time>
      </trkpt>
      <trkpt lat="47.26796" lon="-2.28915">
        <ele>32</ele>
        <time>2024-01-24T07:59:02Z</time>
      </trkpt>
      <trkpt lat="47.26708" lon="-2.28851">
        <ele>34</ele>
        <time>2024-01-24T07:59:25Z</time>
      </trkpt>
      <trkpt lat="47.26621" lon="-2.28757">
        <ele>35</ele>
        <time>2024-01-24T07:59:50Z</time>
      </trkpt>
      <trkpt lat="47.26568" lon="-2.2869">
        <ele>36</ele>
        <time>2024-01-24T08:00:06Z</time>
      </trkpt>
      <trkpt lat="47.26497" lon="-2.2861">
        <ele>40</ele>
        <time>2024-01-24T08:00:27Z</time>
      </trkpt>
      <trkpt lat="47.26504" lon="-2.28601">
        <ele>40</ele>
        <time>2024-01-24T08:00:29Z</time>
      </trkpt>
      <trkpt lat="47.26498" lon="-2.28571">
        <ele>40</ele>
        <time>2024-01-24T08:00:34Z</time>
      </trkpt>
      <trkpt lat="47.26415" lon="-2.28401">
        <ele>41</ele>
        <time>2024-01-24T08:01:07Z</time>
      </trkpt>
      <trkpt lat="47.26383" lon="-2.28331">
        <ele>40</ele>
        <time>2024-01-24T08:01:21Z</time>
      </trkpt>
      <trkpt lat="47.26369" lon="-2.28295">
        <ele>40</ele>
        <time>2024-01-24T08:01:27Z</time>
      </trkpt>
      <trkpt lat="47.26351" lon="-2.28228">
        <ele>40</ele>
        <time>2024-01-24T08:01:39Z</time>
      </trkpt>
      <trkpt lat="47.26338" lon="-2.28164">
        <ele>40</ele>
        <time>2024-01-24T08:01:49Z</time>
      </trkpt>
      <trkpt lat="47.26326" lon="-2.28082">
        <ele>38</ele>
        <time>2024-01-24T08:02:03Z</time>
      </trkpt>
      <trkpt lat="47.26312" lon="-2.28035">
        <ele>38</ele>
        <time>2024-01-24T08:02:11Z</time>
      </trkpt>
      <trkpt lat="47.2629" lon="-2.27971">
        <ele>39</ele>
        <time>2024-01-24T08:02:22Z</time>
      </trkpt>
      <trkpt lat="47.26284" lon="-2.27975">
        <ele>39</ele>
        <time>2024-01-24T08:02:24Z</time>
      </trkpt>
      <trkpt lat="47.26283" lon="-2.27973">
        <ele>39</ele>
        <time>2024-01-24T08:02:24Z</time>
      </trkpt>
      <trkpt lat="47.26284" lon="-2.27975">
        <ele>39</ele>
        <time>2024-01-24T08:02:25Z</time>
      </trkpt>
      <trkpt lat="47.26394" lon="-2.27907">
        <ele>37</ele>
        <time>2024-01-24T08:02:52Z</time>
      </trkpt>
      <trkpt lat="47.26454" lon="-2.27891">
        <ele>36</ele>
        <time>2024-01-24T08:03:07Z</time>
      </trkpt>
      <trkpt lat="47.26495" lon="-2.27884">
        <ele>35</ele>
        <time>2024-01-24T08:03:16Z</time>
      </trkpt>
      <trkpt lat="47.26491" lon="-2.27754">
        <ele>33</ele>
        <time>2024-01-24T08:03:37Z</time>
      </trkpt>
      <trkpt lat="47.26512" lon="-2.27636">
        <ele>32</ele>
        <time>2024-01-24T08:03:56Z</time>
      </trkpt>
      <trkpt lat="47.26523" lon="-2.27586">
        <ele>32</ele>
        <time>2024-01-24T08:04:05Z</time>
      </trkpt>
      <trkpt lat="47.26532" lon="-2.27572">
        <ele>32</ele>
        <time>2024-01-24T08:04:08Z</time>
      </trkpt>
      <trkpt lat="47.26565" lon="-2.27531">
        <ele>32</ele>
        <time>2024-01-24T08:04:18Z</time>
      </trkpt>
      <trkpt lat="47.26577" lon="-2.27484">
        <ele>32</ele>
        <time>2024-01-24T08:04:26Z</time>
      </trkpt>
      <trkpt lat="47.26607" lon="-2.27448">
        <ele>32</ele>
        <time>2024-01-24T08:04:35Z</time>
      </trkpt>
      <trkpt lat="47.26679" lon="-2.27382">
        <ele>32</ele>
        <time>2024-01-24T08:04:55Z</time>
      </trkpt>
      <trkpt lat="47.2674" lon="-2.27351">
        <ele>31</ele>
        <time>2024-01-24T08:05:10Z</time>
      </trkpt>
      <trkpt lat="47.26734" lon="-2.27307">
        <ele>32</ele>
        <time>2024-01-24T08:05:17Z</time>
      </trkpt>
      <trkpt lat="47.26714" lon="-2.272">
        <ele>32</ele>
        <time>2024-01-24T08:05:34Z</time>
      </trkpt>
      <trkpt lat="47.26734" lon="-2.27176">
        <ele>31</ele>
        <time>2024-01-24T08:05:40Z</time>
      </trkpt>
      <trkpt lat="47.2676" lon="-2.27154">
        <ele>30</ele>
        <time>2024-01-24T08:05:47Z</time>
      </trkpt>
      <trkpt lat="47.2678" lon="-2.27143">
        <ele>30</ele>
        <time>2024-01-24T08:05:52Z</time>
      </trkpt>
      <trkpt lat="47.26818" lon="-2.27127">
        <ele>29</ele>
        <time>2024-01-24T08:06:02Z</time>
      </trkpt>
      <trkpt lat="47.26845" lon="-2.27121">
        <ele>29</ele>
        <time>2024-01-24T08:06:08Z</time>
      </trkpt>
      <trkpt lat="47.26862" lon="-2.2711">
        <ele>29</ele>
        <time>2024-01-24T08:06:12Z</time>
      </trkpt>
      <trkpt lat="47.26897" lon="-2.27075">
        <ele>28</ele>
        <time>2024-01-24T08:06:22Z</time>
      </trkpt>
      <trkpt lat="47.26928" lon="-2.27033">
        <ele>26</ele>
        <time>2024-01-24T08:06:32Z</time>
      </trkpt>
      <trkpt lat="47.26954" lon="-2.26989">
        <ele>24</ele>
        <time>2024-01-24T08:06:41Z</time>
      </trkpt>
      <trkpt lat="47.26966" lon="-2.26916">
        <ele>22</ele>
        <time>2024-01-24T08:06:53Z</time>
      </trkpt>
      <trkpt lat="47.26965" lon="-2.26899">
        <ele>22</ele>
        <time>2024-01-24T08:06:56Z</time>
      </trkpt>
      <trkpt lat="47.26961" lon="-2.26885">
        <ele>22</ele>
        <time>2024-01-24T08:06:58Z</time>
      </trkpt>
      <trkpt lat="47.26954" lon="-2.26843">
        <ele>22</ele>
        <time>2024-01-24T08:07:05Z</time>
      </trkpt>
      <trkpt lat="47.26948" lon="-2.26818">
        <ele>22</ele>
        <time>2024-01-24T08:07:09Z</time>
      </trkpt>
      <trkpt lat="47.26934" lon="-2.26788">
        <ele>24</ele>
        <time>2024-01-24T08:07:15Z</time>
      </trkpt>
      <trkpt lat="47.26926" lon="-2.26759">
        <ele>24</ele>
        <time>2024-01-24T08:07:20Z</time>
      </trkpt>
      <trkpt lat="47.26919" lon="-2.2672">
        <ele>25</ele>
        <time>2024-01-24T08:07:26Z</time>
      </trkpt>
      <trkpt lat="47.2691" lon="-2.26683">
        <ele>24</ele>
        <time>2024-01-24T08:07:33Z</time>
      </trkpt>
      <trkpt lat="47.26899" lon="-2.26653">
        <ele>24</ele>
        <time>2024-01-24T08:07:38Z</time>
      </trkpt>
      <trkpt lat="47.26862" lon="-2.26553">
        <ele>24</ele>
        <time>2024-01-24T08:07:56Z</time>
      </trkpt>
      <trkpt lat="47.26862" lon="-2.26552">
        <ele>24</ele>
        <time>2024-01-24T08:07:56Z</time>
      </trkpt>
      <trkpt lat="47.26869" lon="-2.26546">
        <ele>25</ele>
        <time>2024-01-24T08:07:58Z</time>
      </trkpt>
      <trkpt lat="47.2695" lon="-2.26513">
        <ele>26</ele>
        <time>2024-01-24T08:08:18Z</time>
      </trkpt>
      <trkpt lat="47.26979" lon="-2.26491">
        <ele>27</ele>
        <time>2024-01-24T08:08:25Z</time>
      </trkpt>
      <trkpt lat="47.27001" lon="-2.26463">
        <ele>26</ele>
        <time>2024-01-24T08:08:32Z</time>
      </trkpt>
      <trkpt lat="47.27088" lon="-2.26337">
        <ele>23</ele>
        <time>2024-01-24T08:09:01Z</time>
      </trkpt>
      <trkpt lat="47.27162" lon="-2.26236">
        <ele>21</ele>
        <time>2024-01-24T08:09:24Z</time>
      </trkpt>
      <trkpt lat="47.27183" lon="-2.26212">
        <ele>21</ele>
        <time>2024-01-24T08:09:30Z</time>
      </trkpt>
      <trkpt lat="47.27207" lon="-2.26191">
        <ele>21</ele>
        <time>2024-01-24T08:09:37Z</time>
      </trkpt>
      <trkpt lat="47.27241" lon="-2.26168">
        <ele>22</ele>
        <time>2024-01-24T08:09:46Z</time>
      </trkpt>
      <trkpt lat="47.27286" lon="-2.26148">
        <ele>21</ele>
        <time>2024-01-24T08:09:57Z</time>
      </trkpt>
      <trkpt lat="47.27419" lon="-2.26102">
        <ele>19</ele>
        <time>2024-01-24T08:10:29Z</time>
      </trkpt>
      <trkpt lat="47.27462" lon="-2.2606">
        <ele>18</ele>
        <time>2024-01-24T08:10:41Z</time>
      </trkpt>
      <trkpt lat="47.27509" lon="-2.25988">
        <ele>17</ele>
        <time>2024-01-24T08:10:56Z</time>
      </trkpt>
      <trkpt lat="47.27532" lon="-2.25961">
        <ele>16</ele>
        <time>2024-01-24T08:11:03Z</time>
      </trkpt>
      <trkpt lat="47.2755" lon="-2.25945">
        <ele>16</ele>
        <time>2024-01-24T08:11:08Z</time>
      </trkpt>
      <trkpt lat="47.27631" lon="-2.25884">
        <ele>15</ele>
        <time>2024-01-24T08:11:29Z</time>
      </trkpt>
      <trkpt lat="47.27626" lon="-2.25877">
        <ele>15</ele>
        <time>2024-01-24T08:11:31Z</time>
      </trkpt>
      <trkpt lat="47.27593" lon="-2.25817">
        <ele>15</ele>
        <time>2024-01-24T08:11:43Z</time>
      </trkpt>
      <trkpt lat="47.27591" lon="-2.25804">
        <ele>15</ele>
        <time>2024-01-24T08:11:45Z</time>
      </trkpt>
      <trkpt lat="47.276" lon="-2.25732">
        <ele>16</ele>
        <time>2024-01-24T08:11:57Z</time>
      </trkpt>
      <trkpt lat="47.27569" lon="-2.25645">
        <ele>16</ele>
        <time>2024-01-24T08:12:13Z</time>
      </trkpt>
      <trkpt lat="47.27548" lon="-2.25504">
        <ele>14</ele>
        <time>2024-01-24T08:12:35Z</time>
      </trkpt>
      <trkpt lat="47.27499" lon="-2.25453">
        <ele>16</ele>
        <time>2024-01-24T08:12:49Z</time>
      </trkpt>
      <trkpt lat="47.27478" lon="-2.25443">
        <ele>16</ele>
        <time>2024-01-24T08:12:55Z</time>
      </trkpt>
      <trkpt lat="47.27447" lon="-2.25446">
        <ele>16</ele>
        <time>2024-01-24T08:13:02Z</time>
      </trkpt>
      <trkpt lat="47.27433" lon="-2.25438">
        <ele>17</ele>
        <time>2024-01-24T08:13:05Z</time>
      </trkpt>
      <trkpt lat="47.2743" lon="-2.25426">
        <ele>17</ele>
        <time>2024-01-24T08:13:07Z</time>
      </trkpt>
      <trkpt lat="47.27432" lon="-2.25417">
        <ele>18</ele>
        <time>2024-01-24T08:13:09Z</time>
      </trkpt>
      <trkpt lat="47.27444" lon="-2.25388">
        <ele>17</ele>
        <time>2024-01-24T08:13:14Z</time>
      </trkpt>
      <trkpt lat="47.27447" lon="-2.25373">
        <ele>17</ele>
        <time>2024-01-24T08:13:17Z</time>
      </trkpt>
      <trkpt lat="47.27448" lon="-2.25358">
        <ele>17</ele>
        <time>2024-01-24T08:13:19Z</time>
      </trkpt>
      <trkpt lat="47.27447" lon="-2.25341">
        <ele>17</ele>
        <time>2024-01-24T08:13:22Z</time>
      </trkpt>
      <trkpt lat="47.27443" lon="-2.2532">
        <ele>18</ele>
        <time>2024-01-24T08:13:25Z</time>
      </trkpt>
      <trkpt lat="47.27434" lon="-2.25291">
        <ele>18</ele>
        <time>2024-01-24T08:13:30Z</time>
      </trkpt>
      <trkpt lat="47.27358" lon="-2.25106">
        <ele>13</ele>
        <time>2024-01-24T08:14:05Z</time>
      </trkpt>
      <trkpt lat="47.27342" lon="-2.25059">
        <ele>13</ele>
        <time>2024-01-24T08:14:13Z</time>
      </trkpt>
      <trkpt lat="47.27323" lon="-2.24989">
        <ele>13</ele>
        <time>2024-01-24T08:14:25Z</time>
      </trkpt>
      <trkpt lat="47.27336" lon="-2.24979">
        <ele>12</ele>
        <time>2024-01-24T08:14:28Z</time>
      </trkpt>
      <trkpt lat="47.27357" lon="-2.24955">
        <ele>13</ele>
        <time>2024-01-24T08:14:35Z</time>
      </trkpt>
      <trkpt lat="47.27384" lon="-2.24916">
        <ele>15</ele>
        <time>2024-01-24T08:14:43Z</time>
      </trkpt>
      <trkpt lat="47.27398" lon="-2.24894">
        <ele>16</ele>
        <time>2024-01-24T08:14:48Z</time>
      </trkpt>
      <trkpt lat="47.27405" lon="-2.24886">
        <ele>16</ele>
        <time>2024-01-24T08:14:50Z</time>
      </trkpt>
      <trkpt lat="47.2741" lon="-2.24872">
        <ele>16</ele>
        <time>2024-01-24T08:14:53Z</time>
      </trkpt>
      <trkpt lat="47.27425" lon="-2.24833">
        <ele>16</ele>
        <time>2024-01-24T08:15:00Z</time>
      </trkpt>
      <trkpt lat="47.27432" lon="-2.24808">
        <ele>16</ele>
        <time>2024-01-24T08:15:04Z</time>
      </trkpt>
      <trkpt lat="47.27438" lon="-2.24776">
        <ele>17</ele>
        <time>2024-01-24T08:15:09Z</time>
      </trkpt>
      <trkpt lat="47.27437" lon="-2.2467">
        <ele>15</ele>
        <time>2024-01-24T08:15:26Z</time>
      </trkpt>
      <trkpt lat="47.27432" lon="-2.24642">
        <ele>16</ele>
        <time>2024-01-24T08:15:31Z</time>
      </trkpt>
      <trkpt lat="47.27429" lon="-2.24625">
        <ele>16</ele>
        <time>2024-01-24T08:15:34Z</time>
      </trkpt>
      <trkpt lat="47.27435" lon="-2.24565">
        <ele>17</ele>
        <time>2024-01-24T08:15:43Z</time>
      </trkpt>
      <trkpt lat="47.2744" lon="-2.24482">
        <ele>16</ele>
        <time>2024-01-24T08:15:56Z</time>
      </trkpt>
      <trkpt lat="47.27439" lon="-2.2445">
        <ele>15</ele>
        <time>2024-01-24T08:16:01Z</time>
      </trkpt>
      <trkpt lat="47.27439" lon="-2.24424">
        <ele>15</ele>
        <time>2024-01-24T08:16:06Z</time>
      </trkpt>
      <trkpt lat="47.27439" lon="-2.24408">
        <ele>15</ele>
        <time>2024-01-24T08:16:08Z</time>
      </trkpt>
      <trkpt lat="47.27438" lon="-2.24367">
        <ele>15</ele>
        <time>2024-01-24T08:16:15Z</time>
      </trkpt>
      <trkpt lat="47.27445" lon="-2.24323">
        <ele>16</ele>
        <time>2024-01-24T08:16:22Z</time>
      </trkpt>
      <trkpt lat="47.27458" lon="-2.24288">
        <ele>17</ele>
        <time>2024-01-24T08:16:28Z</time>
      </trkpt>
      <trkpt lat="47.27446" lon="-2.24269">
        <ele>16</ele>
        <time>2024-01-24T08:16:32Z</time>
      </trkpt>
      <trkpt lat="47.27437" lon="-2.24248">
        <ele>17</ele>
        <time>2024-01-24T08:16:36Z</time>
      </trkpt>
      <trkpt lat="47.27427" lon="-2.24233">
        <ele>17</ele>
        <time>2024-01-24T08:16:39Z</time>
      </trkpt>
      <trkpt lat="47.27426" lon="-2.24215">
        <ele>17</ele>
        <time>2024-01-24T08:16:42Z</time>
      </trkpt>
      <trkpt lat="47.27415" lon="-2.24185">
        <ele>18</ele>
        <time>2024-01-24T08:16:48Z</time>
      </trkpt>
      <trkpt lat="47.27401" lon="-2.24158">
        <ele>18</ele>
        <time>2024-01-24T08:16:53Z</time>
      </trkpt>
      <trkpt lat="47.27404" lon="-2.24106">
        <ele>19</ele>
        <time>2024-01-24T08:17:01Z</time>
      </trkpt>
      <trkpt lat="47.27383" lon="-2.2407">
        <ele>18</ele>
        <time>2024-01-24T08:17:09Z</time>
      </trkpt>
      <trkpt lat="47.2737" lon="-2.24055">
        <ele>17</ele>
        <time>2024-01-24T08:17:13Z</time>
      </trkpt>
      <trkpt lat="47.27368" lon="-2.24035">
        <ele>17</ele>
        <time>2024-01-24T08:17:16Z</time>
      </trkpt>
      <trkpt lat="47.27318" lon="-2.23979">
        <ele>14</ele>
        <time>2024-01-24T08:17:31Z</time>
      </trkpt>
      <trkpt lat="47.27309" lon="-2.23981">
        <ele>14</ele>
        <time>2024-01-24T08:17:33Z</time>
      </trkpt>
      <trkpt lat="47.27295" lon="-2.23984">
        <ele>14</ele>
        <time>2024-01-24T08:17:36Z</time>
      </trkpt>
      <trkpt lat="47.2729" lon="-2.23983">
        <ele>14</ele>
        <time>2024-01-24T08:17:37Z</time>
      </trkpt>
      <trkpt lat="47.27287" lon="-2.23977">
        <ele>14</ele>
        <time>2024-01-24T08:17:38Z</time>
      </trkpt>
      <trkpt lat="47.27259" lon="-2.2373">
        <ele>14</ele>
        <time>2024-01-24T08:18:18Z</time>
      </trkpt>
      <trkpt lat="47.27255" lon="-2.23709">
        <ele>14</ele>
        <time>2024-01-24T08:18:22Z</time>
      </trkpt>
      <trkpt lat="47.27211" lon="-2.236">
        <ele>13</ele>
        <time>2024-01-24T08:18:42Z</time>
      </trkpt>
      <trkpt lat="47.27216" lon="-2.23596">
        <ele>13</ele>
        <time>2024-01-24T08:18:43Z</time>
      </trkpt>
      <trkpt lat="47.27215" lon="-2.23594">
        <ele>13</ele>
        <time>2024-01-24T08:18:43Z</time>
      </trkpt>
      <trkpt lat="47.27216" lon="-2.23596">
        <ele>13</ele>
        <time>2024-01-24T08:18:44Z</time>
      </trkpt>
      <trkpt lat="47.27211" lon="-2.236">
        <ele>13</ele>
        <time>2024-01-24T08:18:45Z</time>
      </trkpt>
      <trkpt lat="47.27203" lon="-2.2358">
        <ele>13</ele>
        <time>2024-01-24T08:18:49Z</time>
      </trkpt>
      <trkpt lat="47.27144" lon="-2.2362">
        <ele>15</ele>
        <time>2024-01-24T08:19:04Z</time>
      </trkpt>
      <trkpt lat="47.27011" lon="-2.23695">
        <ele>18</ele>
        <time>2024-01-24T08:19:37Z</time>
      </trkpt>
      <trkpt lat="47.26991" lon="-2.23712">
        <ele>19</ele>
        <time>2024-01-24T08:19:43Z</time>
      </trkpt>
      <trkpt lat="47.26988" lon="-2.23707">
        <ele>19</ele>
        <time>2024-01-24T08:19:44Z</time>
      </trkpt>
      <trkpt lat="47.26983" lon="-2.23707">
        <ele>19</ele>
        <time>2024-01-24T08:19:45Z</time>
      </trkpt>
      <trkpt lat="47.26981" lon="-2.23703">
        <ele>19</ele>
        <time>2024-01-24T08:19:46Z</time>
      </trkpt>
      <trkpt lat="47.26976" lon="-2.23665">
        <ele>18</ele>
        <time>2024-01-24T08:19:52Z</time>
      </trkpt>
      <trkpt lat="47.26942" lon="-2.23369">
        <ele>12</ele>
        <time>2024-01-24T08:20:39Z</time>
      </trkpt>
      <trkpt lat="47.26943" lon="-2.23363">
        <ele>11</ele>
        <time>2024-01-24T08:20:40Z</time>
      </trkpt>
      <trkpt lat="47.27016" lon="-2.23347">
        <ele>11</ele>
        <time>2024-01-24T08:20:57Z</time>
      </trkpt>
      <trkpt lat="47.27013" lon="-2.23301">
        <ele>10</ele>
        <time>2024-01-24T08:21:05Z</time>
      </trkpt>
      <trkpt lat="47.2712" lon="-2.23276">
        <ele>8</ele>
        <time>2024-01-24T08:21:30Z</time>
      </trkpt>
    </trkseg>
  </trk>
</gpx>